Time;durP1;ratioP1;P1;durP2;ratioP2;P2;SDS_P1;SDS_P2;PMS_P1;PMS_P2;Temp;Humidity;BMP_temperature;BMP_pressure;BME280_temperature;BME280_humidity;BME280_pressure;Samples;Min_cycle;Max_cycle;Signal;HPM_P1;HPM_P2
2021/07/11 00:01:35;;;;;;;11.18;10.03;;;;;;;22.38;100.00;100686.03;1706532;82;21545;-45
2021/07/11 00:04:01;;;;;;;11.18;10.05;;;;;;;22.35;100.00;100683.12;1703804;82;21020;-46
2021/07/11 00:06:28;;;;;;;12.23;11.12;;;;;;;22.32;100.00;100677.99;1704895;84;21018;-46
2021/07/11 00:08:54;;;;;;;11.88;10.35;;;;;;;22.29;100.00;100676.12;1705149;82;20995;-46
2021/07/11 00:11:21;;;;;;;12.03;10.88;;;;;;;22.27;100.00;100674.06;1697346;83;20968;-45
2021/07/11 00:13:48;;;;;;;11.20;10.08;;;;;;;22.25;100.00;100679.16;1703707;83;21487;-42
2021/07/11 00:16:14;;;;;;;12.28;11.12;;;;;;;22.23;100.00;100676.27;1646785;85;20980;-42
2021/07/11 00:18:41;;;;;;;11.12;10.03;;;;;;;22.19;100.00;100678.43;1697861;83;20929;-45
2021/07/11 00:21:07;;;;;;;11.85;10.75;;;;;;;22.17;100.00;100677.70;1702848;82;20976;-47
2021/07/11 00:23:34;;;;;;;10.68;9.58;;;;;;;22.14;100.00;100673.11;1704960;82;20969;-43
2021/07/11 00:26:00;;;;;;;10.03;9.03;;;;;;;22.10;100.00;100669.88;1704332;83;21528;-42
2021/07/11 00:28:26;;;;;;;10.13;9.05;;;;;;;22.06;100.00;100674.42;1703653;82;20929;-43
2021/07/11 00:30:53;;;;;;;10.48;9.43;;;;;;;22.01;100.00;100666.75;1700928;83;21023;-44
2021/07/11 00:33:20;;;;;;;10.65;9.53;;;;;;;21.96;100.00;100667.73;1702726;83;21476;-44
2021/07/11 00:35:46;;;;;;;10.98;9.68;;;;;;;21.88;100.00;100671.25;1685904;83;20979;-45
2021/07/11 00:38:13;;;;;;;10.35;8.68;;;;;;;21.83;100.00;100664.93;1702789;82;21020;-44
2021/07/11 00:40:40;;;;;;;10.58;9.60;;;;;;;21.83;100.00;100664.93;1700325;84;20933;-43
2021/07/11 00:43:06;;;;;;;11.05;9.78;;;;;;;21.82;100.00;100661.88;1702584;82;20988;-43
2021/07/11 00:45:33;;;;;;;10.88;9.60;;;;;;;21.82;100.00;100656.94;1702168;84;21471;-46
2021/07/11 00:48:00;;;;;;;13.38;9.80;;;;;;;21.82;100.00;100659.17;1704851;82;20980;-42
2021/07/11 00:50:27;;;;;;;10.28;9.35;;;;;;;21.82;100.00;100662.36;1698477;84;20956;-43
2021/07/11 00:52:56;;;;;;;10.23;9.25;;;;;;;21.81;100.00;100657.45;1699933;82;21004;-42
2021/07/11 00:55:25;;;;;;;13.70;11.00;;;;;;;21.82;100.00;100663.72;1701823;83;20964;-46
2021/07/11 00:57:53;;;;;;;13.03;11.75;;;;;;;21.79;100.00;100659.97;1701724;82;20968;-44
2021/07/11 01:00:22;;;;;;;13.30;12.10;;;;;;;21.77;100.00;100664.22;1703130;82;21040;-44
2021/07/11 01:03:10;;;;;;;12.55;11.20;;;;;;;21.73;100.00;100664.17;1697282;82;20972;-46
2021/07/11 01:05:41;;;;;;;15.13;13.53;;;;;;;21.70;100.00;100663.14;1703579;83;20979;-50
2021/07/11 01:08:25;;;;;;;14.60;13.15;;;;;;;21.69;100.00;100657.86;1702670;82;20972;-51
2021/07/11 01:11:03;;;;;;;14.68;13.05;;;;;;;21.64;100.00;100657.48;1704918;82;20965;-43
2021/07/11 01:13:32;;;;;;;13.20;12.00;;;;;;;21.61;100.00;100665.44;1704532;82;20970;-42
2021/07/11 01:16:04;;;;;;;11.80;10.60;;;;;;;21.57;100.00;100655.89;1707142;82;21015;-41
2021/07/11 01:18:32;;;;;;;12.07;10.90;;;;;;;21.52;100.00;100652.80;1685228;83;20977;-42
2021/07/11 01:21:03;;;;;;;11.63;10.63;;;;;;;21.48;100.00;100654.98;1705476;83;20980;-43
2021/07/11 01:24:05;;;;;;;11.50;10.28;;;;;;;21.48;100.00;100659.56;1703891;82;20960;-44
2021/07/11 01:26:33;;;;;;;11.80;10.70;;;;;;;21.44;100.00;100659.00;1705983;82;21451;-43
2021/07/11 01:29:00;;;;;;;11.90;10.80;;;;;;;21.41;100.00;100666.61;1704839;83;20979;-44
2021/07/11 01:31:29;;;;;;;11.20;10.20;;;;;;;21.37;100.00;100660.63;1708304;83;20952;-45
2021/07/11 01:33:56;;;;;;;11.12;10.13;;;;;;;21.33;100.00;100664.14;1715406;82;20984;-46
2021/07/11 01:36:23;;;;;;;13.30;11.57;;;;;;;21.30;100.00;100654.97;1702848;82;20980;-45
2021/07/11 01:38:50;;;;;;;11.68;10.55;;;;;;;21.29;100.00;100655.11;1696492;83;20996;-43
2021/07/11 01:41:17;;;;;;;10.80;9.83;;;;;;;21.28;100.00;100658.84;1704489;82;20976;-43
2021/07/11 01:43:48;;;;;;;11.78;10.10;;;;;;;21.26;100.00;100655.42;1712036;82;20987;-42
2021/07/11 01:46:15;;;;;;;11.48;10.48;;;;;;;21.24;100.00;100659.63;1683209;82;20953;-43
2021/07/11 01:48:42;;;;;;;11.38;10.38;;;;;;;21.19;100.00;100660.59;1701807;83;20980;-44
2021/07/11 01:51:10;;;;;;;11.63;10.48;;;;;;;21.19;100.00;100655.17;1687111;82;20972;-41
2021/07/11 01:53:41;;;;;;;10.38;9.38;;;;;;;21.20;100.00;100659.61;1689058;83;21012;-45
2021/07/11 01:56:08;;;;;;;10.85;9.85;;;;;;;21.18;100.00;100653.48;1708787;82;20972;-48
2021/07/11 01:58:35;;;;;;;12.05;9.90;;;;;;;21.17;100.00;100655.35;1673449;84;20988;-56
2021/07/11 02:01:06;;;;;;;10.75;9.70;;;;;;;21.18;100.00;100657.55;1703606;82;21645;-45
2021/07/11 02:03:32;;;;;;;12.50;11.10;;;;;;;21.16;100.00;100660.41;1706530;82;20976;-46
2021/07/11 02:06:05;;;;;;;11.03;10.08;;;;;;;21.13;100.00;100656.66;1707107;82;20936;-46
2021/07/11 02:08:35;;;;;;;11.68;10.63;;;;;;;21.10;100.00;100666.97;1701463;83;20963;-45
2021/07/11 02:11:02;;;;;;;11.68;9.98;;;;;;;21.07;100.00;100668.63;1663514;83;20984;-48
2021/07/11 02:13:55;;;;;;;13.80;10.85;;;;;;;21.02;100.00;100671.80;1708045;83;20965;-47
2021/07/11 02:16:36;;;;;;;10.78;9.70;;;;;;;20.98;100.00;100669.54;1707551;82;20964;-45
2021/07/11 02:19:04;;;;;;;10.28;9.30;;;;;;;20.93;100.00;100669.48;1706732;83;20981;-44
2021/07/11 02:21:34;;;;;;;11.57;10.40;;;;;;;20.93;100.00;100669.99;1702326;83;20932;-47
2021/07/11 02:24:03;;;;;;;10.90;9.45;;;;;;;20.95;100.00;100676.12;1708054;82;20968;-44
2021/07/11 02:26:30;;;;;;;10.37;9.10;;;;;;;20.95;100.00;100674.77;1681966;83;21019;-46
2021/07/11 02:28:59;;;;;;;9.28;8.48;;;;;;;20.95;100.00;100686.45;1710305;82;21532;-45
2021/07/11 02:31:29;;;;;;;9.03;8.23;;;;;;;20.94;100.00;100682.52;1707760;82;21031;-44
2021/07/11 02:33:55;;;;;;;10.25;9.30;;;;;;;20.92;100.00;100681.85;1709071;82;20949;-44
2021/07/11 02:36:25;;;;;;;9.15;8.33;;;;;;;20.88;100.00;100680.44;1707180;82;20992;-42
2021/07/11 02:39:11;;;;;;;9.93;9.03;;;;;;;20.85;100.00;100692.94;1704148;82;21000;-44
2021/07/11 02:41:53;;;;;;;10.03;9.13;;;;;;;20.85;100.00;100684.30;1704224;82;20972;-44
2021/07/11 02:44:23;;;;;;;15.45;13.83;;;;;;;20.82;100.00;100678.34;1686535;83;20952;-43
2021/07/11 02:47:01;;;;;;;11.33;10.32;;;;;;;20.80;100.00;100683.91;1703852;82;21447;-44
2021/07/11 02:49:30;;;;;;;11.73;10.63;;;;;;;20.81;100.00;100681.53;1707353;82;20946;-45
2021/07/11 02:52:00;;;;;;;11.65;9.45;;;;;;;20.82;100.00;100684.61;1701326;82;20972;-44
2021/07/11 02:54:31;;;;;;;12.43;11.15;;;;;;;20.82;100.00;100685.13;1702354;83;20934;-43
2021/07/11 02:57:01;;;;;;;11.05;9.93;;;;;;;20.82;100.00;100694.60;1685936;83;20989;-44
2021/07/11 02:59:30;;;;;;;11.45;10.35;;;;;;;20.83;100.00;100699.85;1708854;82;21256;-42
2021/07/11 03:02:00;;;;;;;10.50;9.40;;;;;;;20.86;100.00;100694.13;1700453;82;21070;-43
2021/07/11 03:04:27;;;;;;;11.00;9.38;;;;;;;20.86;100.00;100693.27;1705106;82;20956;-45
2021/07/11 03:06:54;;;;;;;11.40;10.20;;;;;;;20.86;100.00;100696.83;1702185;82;21039;-44
2021/07/11 03:09:22;;;;;;;9.93;9.03;;;;;;;20.86;100.00;100701.41;1710690;82;20968;-45
2021/07/11 03:11:49;;;;;;;11.20;10.10;;;;;;;20.88;100.00;100704.83;1711362;83;20985;-43
2021/07/11 03:14:16;;;;;;;12.20;10.15;;;;;;;20.89;100.00;100702.45;1681952;83;20948;-42
2021/07/11 03:16:51;;;;;;;11.12;10.05;;;;;;;20.91;100.00;100704.01;1674312;85;21028;-45
2021/07/11 03:19:19;;;;;;;11.20;10.05;;;;;;;20.93;100.00;100706.58;1659539;85;20986;-43
2021/07/11 03:21:46;;;;;;;11.35;9.43;;;;;;;20.93;100.00;100704.71;1665270;85;20997;-43
2021/07/11 03:24:27;;;;;;;11.68;9.78;;;;;;;20.95;100.00;100708.64;1630487;85;21495;-45
2021/07/11 03:26:57;;;;;;;10.68;9.48;;;;;;;20.97;100.00;100710.70;1648289;85;21472;-44
2021/07/11 03:29:40;;;;;;;10.03;9.03;;;;;;;21.01;100.00;100713.44;1676553;84;20971;-42
2021/07/11 03:32:07;;;;;;;10.15;9.15;;;;;;;21.05;100.00;100712.66;1660036;85;21465;-44
2021/07/11 03:34:34;;;;;;;11.03;9.90;;;;;;;21.08;100.00;100715.89;1678822;83;20960;-46
2021/07/11 03:37:10;;;;;;;11.85;10.20;;;;;;;21.10;100.00;100713.89;1677774;83;21036;-43
2021/07/11 03:39:42;;;;;;;11.57;10.38;;;;;;;21.15;100.00;100720.22;1681328;83;21016;-43
2021/07/11 03:42:10;;;;;;;10.00;9.10;;;;;;;21.18;100.00;100719.40;1655012;85;20981;-48
2021/07/11 03:44:40;;;;;;;12.20;11.10;;;;;;;21.24;100.00;100719.28;1626977;86;20972;-43
2021/07/11 03:47:09;;;;;;;12.25;9.08;;;;;;;21.32;100.00;100718.55;1650497;85;20980;-45
2021/07/11 03:49:37;;;;;;;12.70;11.50;;;;;;;21.39;100.00;100715.09;1661704;85;21023;-45
2021/07/11 03:52:37;;;;;;;10.70;9.63;;;;;;;21.48;100.00;100723.30;1662259;84;20969;-43
2021/07/11 03:55:27;;;;;;;10.20;9.10;;;;;;;21.55;100.00;100714.39;1582630;90;21090;-46
2021/07/11 03:57:54;;;;;;;14.25;9.93;;;;;;;21.63;100.00;100713.61;1596158;88;21044;-48
2021/07/11 04:00:21;;;;;;;10.18;9.18;;;;;;;21.69;100.00;100712.97;1622214;86;21038;-46
2021/07/11 04:02:50;;;;;;;10.50;9.13;;;;;;;21.77;100.00;100706.77;1627322;86;22023;-48
2021/07/11 04:05:19;;;;;;;10.10;9.10;;;;;;;21.82;100.00;100710.73;1626680;86;21039;-47
2021/07/11 04:07:49;;;;;;;10.20;8.90;;;;;;;21.89;100.00;100709.58;1629517;86;21002;-43
2021/07/11 04:10:16;;;;;;;10.45;9.43;;;;;;;21.97;100.00;100704.72;1626218;86;21987;-53
2021/07/11 04:12:43;;;;;;;10.45;9.45;;;;;;;22.03;100.00;100702.23;1627189;87;20971;-45
2021/07/11 04:15:10;;;;;;;9.50;8.63;;;;;;;22.10;100.00;100697.51;1627222;86;20983;-47
2021/07/11 04:17:38;;;;;;;11.43;9.58;;;;;;;22.16;100.00;100700.45;1628127;86;20996;-47
2021/07/11 04:20:05;;;;;;;9.38;8.45;;;;;;;22.22;100.00;100699.83;1626426;86;21044;-42
2021/07/11 04:22:32;;;;;;;12.10;9.68;;;;;;;22.28;100.00;100694.80;1627119;86;22007;-45
2021/07/11 04:24:59;;;;;;;10.60;8.95;;;;;;;22.33;100.00;100691.94;1635238;83;21027;-47
2021/07/11 04:27:25;;;;;;;10.70;9.60;;;;;;;22.39;100.00;100693.15;1704953;82;20993;-48
2021/07/11 04:29:52;;;;;;;9.30;8.33;;;;;;;22.42;100.00;100693.66;1706908;82;20980;-46
2021/07/11 04:32:19;;;;;;;9.80;8.60;;;;;;;22.48;100.00;100692.19;1672227;83;20976;-47
2021/07/11 04:34:46;;;;;;;11.40;9.35;;;;;;;22.54;100.00;100691.53;1642584;86;21515;-46
2021/07/11 04:37:13;;;;;;;12.65;9.40;;;;;;;22.60;100.00;100688.18;1707491;82;20968;-43
2021/07/11 04:39:40;;;;;;;10.60;8.10;;;;;;;22.64;100.00;100688.69;1704733;83;20971;-50
2021/07/11 04:42:07;;;;;;;10.13;9.13;;;;;;;22.67;100.00;100687.84;1706076;82;20945;-43
2021/07/11 04:44:34;;;;;;;10.23;9.13;;;;;;;22.72;100.00;100692.80;1699357;83;20956;-43
2021/07/11 04:47:00;;;;;;;9.78;8.55;;;;;;;22.77;100.00;100690.95;1707186;82;20956;-47
2021/07/11 04:49:27;;;;;;;9.63;8.68;;;;;;;22.79;100.00;100685.69;1702977;82;20956;-42
2021/07/11 04:51:55;;;;;;;9.33;7.08;;;;;;;22.83;100.00;100684.36;1703972;82;21004;-45
2021/07/11 04:54:22;;;;;;;8.55;6.72;;;;;;;22.89;100.00;100682.33;1704974;82;21030;-45
2021/07/11 04:56:48;;;;;;;8.20;6.05;;;;;;;22.96;100.00;100679.81;1704870;82;21567;-46
2021/07/11 04:59:15;;;;;;;8.83;5.55;;;;;;;23.00;100.00;100674.40;1703350;82;20928;-47
2021/07/11 05:01:42;;;;;;;5.55;5.05;;;;;;;23.07;100.00;100671.88;1668523;85;21072;-55
2021/07/11 05:04:09;;;;;;;6.35;5.72;;;;;;;23.14;100.00;100662.55;1705998;82;21052;-43
2021/07/11 05:06:35;;;;;;;5.95;5.35;;;;;;;23.20;100.00;100663.23;1704687;83;21012;-46
2021/07/11 05:09:05;;;;;;;7.08;5.20;;;;;;;23.26;100.00;100663.94;1702345;83;20961;-51
2021/07/11 05:11:31;;;;;;;5.90;5.37;;;;;;;23.31;100.00;100666.48;1698712;82;21021;-57
2021/07/11 05:13:59;;;;;;;5.58;5.03;;;;;;;23.35;100.00;100671.07;1697890;82;20988;-47
2021/07/11 05:16:27;;;;;;;5.15;4.65;;;;;;;23.40;100.00;100666.48;1700516;82;20972;-46
2021/07/11 05:18:53;;;;;;;7.78;4.90;;;;;;;23.43;100.00;100657.98;1702612;82;21521;-57
2021/07/11 05:21:20;;;;;;;6.25;5.25;;;;;;;23.47;100.00;100657.48;1697981;82;21266;-49
2021/07/11 05:23:50;;;;;;;4.87;4.47;;;;;;;23.53;100.00;100664.95;1706371;82;21007;-56
2021/07/11 05:26:59;;;;;;;5.67;5.17;;;;;;;23.58;100.00;100664.45;1702448;83;21433;-55
2021/07/11 05:29:45;;;;;;;5.55;4.97;;;;;;;23.65;100.00;100664.63;1483188;95;21588;-46
2021/07/11 05:32:12;;;;;;;5.80;5.20;;;;;;;23.69;100.00;100664.13;1478427;95;21043;-45
2021/07/11 05:34:38;;;;;;;5.10;4.47;;;;;;;23.73;100.00;100657.84;1478418;95;21078;-58
2021/07/11 05:37:05;;;;;;;6.40;5.42;;;;;;;23.78;100.00;100660.91;1500808;94;21032;-50
2021/07/11 05:39:32;;;;;;;6.42;4.87;;;;;;;23.82;100.00;100658.19;1499923;94;21559;-50
2021/07/11 05:41:59;;;;;;;6.22;5.33;;;;;;;23.88;100.00;100664.30;1500688;94;21098;-54
2021/07/11 05:44:25;;;;;;;6.70;4.53;;;;;;;23.92;100.00;100671.11;1499965;94;21115;-53
2021/07/11 05:46:54;;;;;;;5.97;4.20;;;;;;;23.97;100.00;100668.72;1499973;94;21098;-51
2021/07/11 05:49:21;;;;;;;7.72;5.45;;;;;;;24.03;100.00;100668.53;1500145;94;21074;-43
2021/07/11 05:51:47;;;;;;;7.65;4.97;;;;;;;24.11;100.00;100669.03;1499268;94;21448;-44
2021/07/11 05:54:15;;;;;;;7.85;5.28;;;;;;;24.18;100.00;100665.44;1499967;94;21020;-44
2021/07/11 05:56:42;;;;;;;5.37;4.85;;;;;;;24.27;100.00;100666.80;1498737;94;21032;-47
2021/07/11 05:59:08;;;;;;;6.37;5.42;;;;;;;24.34;100.00;100670.01;1498056;94;21020;-44
2021/07/11 06:01:35;;;;;;;5.45;4.92;;;;;;;24.41;100.00;100675.07;1498365;94;21065;-43
2021/07/11 06:04:02;;;;;;;5.22;4.67;;;;;;;24.48;100.00;100677.14;1498847;94;21052;-44
2021/07/11 06:06:28;;;;;;;5.35;4.67;;;;;;;24.53;100.00;100676.95;1502798;93;21127;-47
2021/07/11 06:08:56;;;;;;;6.78;5.45;;;;;;;24.60;100.00;100675.22;1501426;94;21055;-46
2021/07/11 06:11:23;;;;;;;6.17;5.53;;;;;;;24.66;100.00;100676.91;1555777;90;20971;-45
2021/07/11 06:13:51;;;;;;;6.03;5.42;;;;;;;24.73;100.00;100673.28;1554820;91;21524;-43
2021/07/11 06:16:18;;;;;;;7.42;5.90;;;;;;;24.77;100.00;100665.10;1561033;90;21046;-54
2021/07/11 06:18:45;;;;;;;7.03;5.87;;;;;;;24.82;100.00;100671.36;1555517;90;21038;-54
2021/07/11 06:21:12;;;;;;;6.37;5.03;;;;;;;24.87;100.00;100671.67;1559576;90;21328;-60
2021/07/11 06:23:38;;;;;;;7.42;6.22;;;;;;;24.91;100.00;100669.45;1557413;90;21064;-57
2021/07/11 06:26:05;;;;;;;6.15;5.55;;;;;;;24.96;100.00;100671.13;1557000;90;21059;-57
2021/07/11 06:28:31;;;;;;;7.12;5.37;;;;;;;25.01;100.00;100665.98;1555840;90;21858;-54
2021/07/11 06:30:57;;;;;;;10.20;6.12;;;;;;;25.06;100.00;100667.66;1555013;90;20968;-53
2021/07/11 06:33:24;;;;;;;6.15;5.53;;;;;;;25.10;100.00;100664.92;1556998;90;21002;-51
2021/07/11 06:35:50;;;;;;;7.17;6.47;;;;;;;25.18;100.00;100661.32;1557734;90;20995;-50
2021/07/11 06:38:17;;;;;;;7.67;6.00;;;;;;;25.23;100.00;100661.11;1556239;90;21020;-49
2021/07/11 06:40:44;;;;;;;6.75;5.35;;;;;;;25.30;100.00;100661.24;1559012;90;21061;-52
2021/07/11 06:43:10;;;;;;;5.75;5.17;;;;;;;25.37;100.00;100658.09;1555897;90;20979;-49
2021/07/11 06:45:37;;;;;;;8.00;6.00;;;;;;;25.43;100.00;100657.91;1561164;90;21033;-49
2021/07/11 06:48:04;;;;;;;6.12;5.62;;;;;;;25.49;100.00;100653.06;1556088;90;21085;-50
2021/07/11 06:50:31;;;;;;;6.80;5.50;;;;;;;25.55;100.00;100651.48;1557680;90;21011;-50
2021/07/11 06:52:59;;;;;;;5.47;4.95;;;;;;;25.58;100.00;100646.52;1558240;90;21026;-49
2021/07/11 06:55:26;;;;;;;7.08;6.37;;;;;;;25.64;100.00;100640.31;1555939;90;21029;-48
2021/07/11 06:57:52;;;;;;;6.03;5.42;;;;;;;25.69;100.00;100646.59;1581821;86;20952;-52
2021/07/11 07:00:20;;;;;;;8.15;5.35;;;;;;;25.75;100.00;100644.47;1630562;86;21083;-55
2021/07/11 07:02:46;;;;;;;5.17;4.45;;;;;;;25.80;100.00;100635.73;1627494;86;20948;-46
2021/07/11 07:05:13;;;;;;;5.12;4.62;;;;;;;25.85;100.00;100635.53;1627473;86;21622;-49
2021/07/11 07:07:39;;;;;;;8.73;5.58;;;;;;;25.92;100.00;100630.19;1626259;86;21023;-55
2021/07/11 07:10:09;;;;;;;6.37;4.87;;;;;;;25.99;100.00;100636.60;1625675;86;21047;-50
2021/07/11 07:12:37;;;;;;;5.95;4.50;;;;;;;26.02;100.00;100636.22;1698930;82;21019;-48
2021/07/11 07:15:05;;;;;;;6.10;4.87;;;;;;;26.09;100.00;100644.00;1708162;82;21008;-46
2021/07/11 07:17:32;;;;;;;5.55;5.05;;;;;;;26.11;100.00;100633.74;1712862;82;21048;-48
2021/07/11 07:19:59;;;;;;;5.78;5.17;;;;;;;26.19;100.00;100640.16;1714021;82;20995;-48
2021/07/11 07:22:26;;;;;;;5.85;5.25;;;;;;;26.25;100.00;100640.75;1711616;82;20987;-49
2021/07/11 07:24:52;;;;;;;5.70;5.08;;;;;;;26.27;100.00;100643.63;1708277;82;21007;-47
2021/07/11 07:27:19;;;;;;;9.25;6.20;;;;;;;26.30;100.00;100646.50;1709003;82;21028;-48
2021/07/11 07:29:45;;;;;;;4.97;4.47;;;;;;;26.37;100.00;100646.61;1712156;82;20987;-47
2021/07/11 07:32:12;;;;;;;4.20;3.80;;;;;;;26.43;100.00;100642.58;1709026;82;20995;-48
2021/07/11 07:34:39;;;;;;;5.60;4.53;;;;;;;26.53;96.67;100645.93;1704860;83;20991;-48
2021/07/11 07:37:07;;;;;;;4.80;3.90;;;;;;;26.59;99.74;100642.95;1709048;82;21019;-48
2021/07/11 07:39:34;;;;;;;5.35;4.25;;;;;;;26.64;99.32;100651.95;1707502;83;21052;-47
2021/07/11 07:42:01;;;;;;;6.95;5.22;;;;;;;26.66;97.01;100647.98;1710865;82;21397;-47
2021/07/11 07:44:28;;;;;;;6.47;4.10;;;;;;;26.71;96.94;100642.79;1707384;82;21051;-48
2021/07/11 07:46:55;;;;;;;5.37;4.10;;;;;;;26.75;100.00;100644.61;1708747;82;20981;-48
2021/07/11 07:49:21;;;;;;;4.90;4.33;;;;;;;26.79;100.00;100641.83;1709776;82;21418;-49
2021/07/11 07:51:48;;;;;;;5.20;4.40;;;;;;;26.83;99.95;100641.75;1709413;82;21266;-49
2021/07/11 07:54:14;;;;;;;4.80;4.33;;;;;;;26.88;98.19;100641.19;1707907;82;21856;-48
2021/07/11 07:56:41;;;;;;;4.97;4.22;;;;;;;26.91;96.79;100639.42;1710361;82;20980;-47
2021/07/11 07:59:08;;;;;;;5.12;4.15;;;;;;;26.95;100.00;100644.84;1711910;82;21011;-48
2021/07/11 08:01:34;;;;;;;4.97;3.42;;;;;;;26.97;97.72;100639.52;1707737;82;21071;-47
2021/07/11 08:04:03;;;;;;;3.72;3.40;;;;;;;26.98;95.91;100641.19;1709270;82;21388;-48
2021/07/11 08:06:31;;;;;;;8.20;4.05;;;;;;;27.01;95.56;100634.48;1709230;82;21016;-50
2021/07/11 08:08:58;;;;;;;4.05;3.20;;;;;;;27.05;94.36;100628.97;1701185;82;20997;-47
2021/07/11 08:11:26;;;;;;;5.92;3.95;;;;;;;27.10;85.26;100632.49;1692633;83;20967;-47
2021/07/11 08:13:53;;;;;;;4.85;3.22;;;;;;;27.19;82.89;100632.21;1690287;83;21386;-49
2021/07/11 08:16:19;;;;;;;4.78;4.25;;;;;;;27.27;77.89;100632.60;1690284;83;21459;-49
2021/07/11 08:18:49;;;;;;;4.62;3.62;;;;;;;27.35;84.56;100633.83;1689361;83;21464;-49
2021/07/11 08:21:16;;;;;;;4.10;3.30;;;;;;;27.39;84.43;100633.78;1692872;83;20989;-52
2021/07/11 08:23:42;;;;;;;3.50;3.20;;;;;;;27.43;83.37;100634.75;1687741;83;20980;-47
2021/07/11 08:26:10;;;;;;;5.92;4.03;;;;;;;27.46;79.05;100625.61;1689167;83;21518;-43
2021/07/11 08:28:36;;;;;;;4.03;3.58;;;;;;;27.54;78.15;100624.13;1691378;83;20996;-45
2021/07/11 08:31:03;;;;;;;3.95;2.92;;;;;;;27.60;85.04;100617.84;1690520;83;21011;-46
2021/07/11 08:33:30;;;;;;;5.00;3.12;;;;;;;27.65;84.46;100618.62;1688146;83;20918;-47
2021/07/11 08:35:58;;;;;;;4.08;3.58;;;;;;;27.67;75.08;100623.38;1692458;83;20995;-48
2021/07/11 08:38:25;;;;;;;5.80;3.58;;;;;;;27.72;69.28;100611.80;1689470;83;21557;-45
2021/07/11 08:40:52;;;;;;;5.47;3.75;;;;;;;27.79;75.17;100608.08;1689906;83;20960;-45
2021/07/11 08:43:18;;;;;;;3.60;2.80;;;;;;;27.83;79.53;100607.20;1692035;83;20961;-44
2021/07/11 08:45:46;;;;;;;7.92;3.52;;;;;;;27.83;71.37;100605.30;1668596;83;21830;-44
2021/07/11 08:48:12;;;;;;;5.78;3.33;;;;;;;27.86;73.18;100615.54;1687643;83;20953;-43
2021/07/11 08:50:39;;;;;;;5.35;3.50;;;;;;;27.87;70.71;100607.14;1689662;83;21070;-44
2021/07/11 08:53:06;;;;;;;6.15;3.00;;;;;;;27.92;71.24;100602.40;1689529;83;20961;-43
2021/07/11 08:55:32;;;;;;;3.60;3.30;;;;;;;27.93;75.16;100603.58;1690994;83;21026;-48
2021/07/11 08:58:00;;;;;;;4.83;2.95;;;;;;;27.96;70.92;100598.22;1689174;83;20968;-49
2021/07/11 09:00:30;;;;;;;4.25;3.85;;;;;;;28.00;70.97;100611.86;1690718;83;21004;-48
2021/07/11 09:02:57;;;;;;;5.30;3.20;;;;;;;28.02;70.33;100602.39;1688267;83;21508;-48
2021/07/11 09:05:39;;;;;;;3.22;2.70;;;;;;;28.07;70.29;100606.40;1689659;83;20949;-47
2021/07/11 09:08:23;;;;;;;4.65;3.00;;;;;;;28.10;69.72;100604.12;1690930;83;20983;-46
2021/07/11 09:10:50;;;;;;;4.92;3.47;;;;;;;28.19;67.85;100608.90;1709730;82;20956;-44
2021/07/11 09:13:19;;;;;;;5.00;3.22;;;;;;;28.19;67.85;100608.90;1711249;82;20992;-44
2021/07/11 09:15:52;;;;;;;4.10;3.02;;;;;;;28.20;67.54;100610.61;1707872;83;20948;-57
2021/07/11 09:18:27;;;;;;;7.08;3.08;;;;;;;28.19;67.54;100603.42;1710936;82;20951;-54
2021/07/11 09:21:06;;;;;;;3.20;2.47;;;;;;;28.19;69.00;100600.67;1709150;82;21050;-47
2021/07/11 09:23:34;;;;;;;3.62;3.15;;;;;;;28.19;69.11;100606.16;1658051;85;21511;-44
2021/07/11 09:26:12;;;;;;;3.70;3.17;;;;;;;28.19;70.88;100594.66;1674723;83;20995;-45
2021/07/11 09:28:44;;;;;;;4.58;2.95;;;;;;;28.19;76.06;100593.83;1674965;83;20991;-43
2021/07/11 09:31:13;;;;;;;5.92;3.15;;;;;;;28.20;78.93;100599.65;1676427;83;20999;-45
2021/07/11 09:33:45;;;;;;;5.28;3.10;;;;;;;28.19;72.01;100592.45;1672599;83;21043;-43
2021/07/11 09:36:18;;;;;;;4.15;3.17;;;;;;;28.23;76.23;100586.91;1659488;84;20956;-43
2021/07/11 09:38:48;;;;;;;5.22;3.25;;;;;;;28.25;75.37;100582.91;1659853;85;21060;-43
2021/07/11 09:41:19;;;;;;;7.95;3.40;;;;;;;28.34;79.87;100582.73;1661411;84;21004;-43
2021/07/11 09:43:45;;;;;;;6.08;3.05;;;;;;;28.40;77.50;100582.77;1675574;83;20980;-49
2021/07/11 09:46:13;;;;;;;3.77;3.17;;;;;;;28.47;78.00;100582.28;1670262;83;21759;-47
2021/07/11 09:48:40;;;;;;;3.85;2.95;;;;;;;28.54;73.74;100581.48;1654990;85;21035;-47
2021/07/11 09:51:19;;;;;;;4.55;3.75;;;;;;;28.59;72.26;100576.22;1644789;86;21021;-52
2021/07/11 09:53:48;;;;;;;4.10;2.80;;;;;;;28.65;75.46;100584.98;1644479;86;20952;-52
2021/07/11 09:56:39;;;;;;;3.12;2.83;;;;;;;28.69;68.21;100580.26;1675262;83;20978;-51
2021/07/11 09:59:08;;;;;;;4.37;2.50;;;;;;;28.79;67.54;100577.66;1653170;85;20972;-61
2021/07/11 10:01:38;;;;;;;3.40;2.83;;;;;;;28.88;65.69;100579.17;1677950;83;21256;-52
2021/07/11 10:04:05;;;;;;;4.35;2.90;;;;;;;28.94;63.26;100575.58;1660508;85;21463;-51
2021/07/11 10:06:32;;;;;;;8.35;3.20;;;;;;;28.98;61.09;100575.50;1663481;85;21051;-44
2021/07/11 10:09:01;;;;;;;3.45;2.58;;;;;;;29.05;60.49;100577.73;1660095;85;21044;-42
2021/07/11 10:11:28;;;;;;;3.35;2.95;;;;;;;29.12;59.02;100581.87;1645719;85;21501;-45
2021/07/11 10:13:54;;;;;;;4.83;3.33;;;;;;;29.17;61.36;100579.87;1647187;85;21386;-46
2021/07/11 10:16:25;;;;;;;4.10;2.92;;;;;;;29.20;61.26;100577.55;1647255;85;20980;-44
2021/07/11 10:18:58;;;;;;;5.22;2.83;;;;;;;29.24;61.29;100576.61;1650520;85;21025;-43
2021/07/11 10:21:29;;;;;;;3.30;2.62;;;;;;;29.28;57.06;100568.26;1651882;85;21627;-43
2021/07/11 10:23:57;;;;;;;5.00;3.30;;;;;;;29.32;62.93;100571.75;1629717;87;20989;-44
2021/07/11 10:26:35;;;;;;;5.95;3.90;;;;;;;29.37;58.83;100564.80;1630596;86;21077;-44
2021/07/11 10:29:17;;;;;;;4.22;3.60;;;;;;;29.41;60.55;100570.16;1619444;87;21010;-43
2021/07/11 10:31:52;;;;;;;3.95;3.20;;;;;;;29.45;59.55;100570.91;1690428;83;20983;-42
2021/07/11 10:34:34;;;;;;;5.92;3.12;;;;;;;29.46;59.68;100568.49;1691787;83;21044;-43
2021/07/11 10:37:17;;;;;;;5.28;3.83;;;;;;;29.44;58.51;100565.11;1692978;83;21244;-45
2021/07/11 10:39:44;;;;;;;5.35;4.17;;;;;;;29.40;58.21;100572.06;1693191;84;21436;-48
2021/07/11 10:42:11;;;;;;;4.55;3.30;;;;;;;29.40;56.53;100564.36;1694287;83;20993;-45
2021/07/11 10:44:39;;;;;;;5.28;3.52;;;;;;;29.40;56.07;100562.45;1693593;83;21012;-45
2021/07/11 10:47:06;;;;;;;4.35;3.17;;;;;;;29.39;55.62;100559.41;1691957;83;21032;-45
2021/07/11 10:49:35;;;;;;;8.33;4.15;;;;;;;29.41;55.83;100560.55;1692401;83;21527;-44
2021/07/11 10:52:09;;;;;;;3.85;3.40;;;;;;;29.43;54.43;100560.66;1691558;83;20992;-44
2021/07/11 10:54:40;;;;;;;9.23;6.28;;;;;;;29.44;54.76;100562.36;1688196;83;20960;-39
2021/07/11 10:57:11;;;;;;;16.15;10.48;;;;;;;29.48;54.58;100555.41;1692685;83;20996;-39
2021/07/11 10:59:39;;;;;;;24.15;19.90;;;;;;;29.51;51.98;100561.84;1692811;83;20940;-41
2021/07/11 11:02:20;;;;;;;14.00;8.03;;;;;;;29.57;52.48;100560.67;1690941;83;21105;-44
2021/07/11 11:05:00;;;;;;;15.30;13.35;;;;;;;29.58;52.75;100554.11;1691644;83;21004;-43
2021/07/11 11:07:43;;;;;;;8.05;7.08;;;;;;;29.58;57.08;100555.48;1620690;87;21004;-44
2021/07/11 11:10:30;;;;;;;4.42;3.50;;;;;;;29.58;59.69;100554.11;1597455;88;21028;-48
2021/07/11 11:13:02;;;;;;;4.65;3.00;;;;;;;29.59;52.67;100557.19;1602311;87;20989;-57
2021/07/11 11:15:44;;;;;;;3.60;3.30;;;;;;;29.64;48.04;100554.11;1602509;87;20992;-47
2021/07/11 11:18:24;;;;;;;5.08;3.60;;;;;;;29.69;49.77;100552.97;1635432;86;21578;-43
2021/07/11 11:21:07;;;;;;;4.70;3.37;;;;;;;29.69;49.79;100552.14;1633719;86;21019;-41
2021/07/11 11:23:37;;;;;;;5.72;5.22;;;;;;;29.70;54.64;100554.65;1637655;86;21016;-42
2021/07/11 11:26:04;;;;;;;6.78;4.53;;;;;;;29.72;55.25;100553.08;1637047;86;20979;-43